sensor_id;sensor_type;location;lat;lon;timestamp;temperature;humidity
76120;DHT22;64852;48.092;-1.640;2024-03-22T00:01:39;13.70;99.90
76120;DHT22;64852;48.092;-1.640;2024-03-22T00:04:05;13.70;99.90
76120;DHT22;64852;48.092;-1.640;2024-03-22T00:06:30;13.80;99.90
76120;DHT22;64852;48.092;-1.640;2024-03-22T00:08:56;13.80;99.90
76120;DHT22;64852;48.092;-1.640;2024-03-22T00:11:21;13.80;99.90
76120;DHT22;64852;48.092;-1.640;2024-03-22T00:13:47;13.70;99.90
76120;DHT22;64852;48.092;-1.640;2024-03-22T00:16:12;13.70;99.90
76120;DHT22;64852;48.092;-1.640;2024-03-22T00:18:37;13.50;99.90
76120;DHT22;64852;48.092;-1.640;2024-03-22T00:21:03;13.50;99.90
76120;DHT22;64852;48.092;-1.640;2024-03-22T00:23:28;13.50;99.90
76120;DHT22;64852;48.092;-1.640;2024-03-22T00:25:56;13.60;99.90
76120;DHT22;64852;48.092;-1.640;2024-03-22T00:28:21;13.50;99.90
76120;DHT22;64852;48.092;-1.640;2024-03-22T00:30:47;13.40;99.90
76120;DHT22;64852;48.092;-1.640;2024-03-22T00:33:12;13.60;99.90
76120;DHT22;64852;48.092;-1.640;2024-03-22T00:35:38;13.60;99.90
76120;DHT22;64852;48.092;-1.640;2024-03-22T00:38:03;13.60;99.90
76120;DHT22;64852;48.092;-1.640;2024-03-22T00:40:29;13.60;99.90
76120;DHT22;64852;48.092;-1.640;2024-03-22T00:42:54;13.60;99.90
76120;DHT22;64852;48.092;-1.640;2024-03-22T00:45:20;13.70;99.90
76120;DHT22;64852;48.092;-1.640;2024-03-22T00:47:45;13.60;99.90
76120;DHT22;64852;48.092;-1.640;2024-03-22T00:50:11;13.60;99.90
76120;DHT22;64852;48.092;-1.640;2024-03-22T00:52:38;13.60;99.90
76120;DHT22;64852;48.092;-1.640;2024-03-22T00:55:03;13.60;99.90
76120;DHT22;64852;48.092;-1.640;2024-03-22T00:57:29;13.50;99.90
76120;DHT22;64852;48.092;-1.640;2024-03-22T00:59:54;13.50;99.90
76120;DHT22;64852;48.092;-1.640;2024-03-22T01:02:20;13.50;99.90
76120;DHT22;64852;48.092;-1.640;2024-03-22T01:04:47;13.50;99.90
76120;DHT22;64852;48.092;-1.640;2024-03-22T01:07:13;13.40;99.90
76120;DHT22;64852;48.092;-1.640;2024-03-22T01:09:38;13.50;99.90
76120;DHT22;64852;48.092;-1.640;2024-03-22T01:12:04;13.60;99.90
76120;DHT22;64852;48.092;-1.640;2024-03-22T01:14:30;13.50;99.90
76120;DHT22;64852;48.092;-1.640;2024-03-22T01:16:55;13.50;99.90
76120;DHT22;64852;48.092;-1.640;2024-03-22T01:19:21;13.60;99.90
76120;DHT22;64852;48.092;-1.640;2024-03-22T01:21:48;13.70;99.90
76120;DHT22;64852;48.092;-1.640;2024-03-22T01:24:14;13.70;99.90
76120;DHT22;64852;48.092;-1.640;2024-03-22T01:26:39;13.60;99.90
76120;DHT22;64852;48.092;-1.640;2024-03-22T01:29:05;13.60;99.90
76120;DHT22;64852;48.092;-1.640;2024-03-22T01:31:30;13.70;99.90
76120;DHT22;64852;48.092;-1.640;2024-03-22T01:33:55;13.70;99.90
76120;DHT22;64852;48.092;-1.640;2024-03-22T01:36:21;13.70;99.90
76120;DHT22;64852;48.092;-1.640;2024-03-22T01:38:46;13.60;99.90
76120;DHT22;64852;48.092;-1.640;2024-03-22T01:41:12;13.60;99.90
76120;DHT22;64852;48.092;-1.640;2024-03-22T01:43:37;13.60;99.90
76120;DHT22;64852;48.092;-1.640;2024-03-22T01:46:03;13.60;99.90
76120;DHT22;64852;48.092;-1.640;2024-03-22T01:48:29;13.60;99.90
76120;DHT22;64852;48.092;-1.640;2024-03-22T01:50:55;13.60;99.90
76120;DHT22;64852;48.092;-1.640;2024-03-22T01:53:20;13.60;99.90
76120;DHT22;64852;48.092;-1.640;2024-03-22T01:55:47;13.70;99.90
76120;DHT22;64852;48.092;-1.640;2024-03-22T01:58:12;13.60;99.90
76120;DHT22;64852;48.092;-1.640;2024-03-22T02:00:38;13.60;99.90
76120;DHT22;64852;48.092;-1.640;2024-03-22T02:03:04;13.60;99.90
76120;DHT22;64852;48.092;-1.640;2024-03-22T02:05:29;13.60;99.90
76120;DHT22;64852;48.092;-1.640;2024-03-22T02:07:55;12.60;99.90
76120;DHT22;64852;48.092;-1.640;2024-03-22T02:10:20;13.50;99.90
76120;DHT22;64852;48.092;-1.640;2024-03-22T02:12:46;13.50;99.90
76120;DHT22;64852;48.092;-1.640;2024-03-22T02:15:11;13.50;99.90
76120;DHT22;64852;48.092;-1.640;2024-03-22T02:17:37;13.50;99.90
76120;DHT22;64852;48.092;-1.640;2024-03-22T02:20:02;13.50;99.90
76120;DHT22;64852;48.092;-1.640;2024-03-22T02:22:29;13.30;99.90
76120;DHT22;64852;48.092;-1.640;2024-03-22T02:24:55;13.50;99.90
76120;DHT22;64852;48.092;-1.640;2024-03-22T02:27:20;13.40;99.90
76120;DHT22;64852;48.092;-1.640;2024-03-22T02:29:46;13.40;99.90
76120;DHT22;64852;48.092;-1.640;2024-03-22T02:32:11;13.40;99.90
76120;DHT22;64852;48.092;-1.640;2024-03-22T02:34:37;13.40;99.90
76120;DHT22;64852;48.092;-1.640;2024-03-22T02:37:02;13.40;99.90
76120;DHT22;64852;48.092;-1.640;2024-03-22T02:39:28;13.50;99.90
76120;DHT22;64852;48.092;-1.640;2024-03-22T02:41:54;13.40;99.90
76120;DHT22;64852;48.092;-1.640;2024-03-22T02:44:19;13.30;99.90
76120;DHT22;64852;48.092;-1.640;2024-03-22T02:46:45;13.30;99.90
76120;DHT22;64852;48.092;-1.640;2024-03-22T02:49:10;13.30;99.90
76120;DHT22;64852;48.092;-1.640;2024-03-22T02:51:36;13.20;99.90
76120;DHT22;64852;48.092;-1.640;2024-03-22T02:54:01;13.10;99.90
76120;DHT22;64852;48.092;-1.640;2024-03-22T02:56:27;13.10;99.90
76120;DHT22;64852;48.092;-1.640;2024-03-22T02:58:53;13.20;99.90
76120;DHT22;64852;48.092;-1.640;2024-03-22T03:01:18;13.10;99.90
76120;DHT22;64852;48.092;-1.640;2024-03-22T03:03:44;13.20;99.90
76120;DHT22;64852;48.092;-1.640;2024-03-22T03:06:09;13.10;99.90
76120;DHT22;64852;48.092;-1.640;2024-03-22T03:08:35;13.20;99.90
76120;DHT22;64852;48.092;-1.640;2024-03-22T03:11:00;13.10;99.90
76120;DHT22;64852;48.092;-1.640;2024-03-22T03:13:26;13.20;99.90
76120;DHT22;64852;48.092;-1.640;2024-03-22T03:15:52;13.10;99.90
76120;DHT22;64852;48.092;-1.640;2024-03-22T03:18:17;13.10;99.90
76120;DHT22;64852;48.092;-1.640;2024-03-22T03:20:43;13.10;99.90
76120;DHT22;64852;48.092;-1.640;2024-03-22T03:23:08;13.20;99.90
76120;DHT22;64852;48.092;-1.640;2024-03-22T03:25:33;13.20;99.90
76120;DHT22;64852;48.092;-1.640;2024-03-22T03:27:59;13.10;99.90
76120;DHT22;64852;48.092;-1.640;2024-03-22T03:30:24;13.20;99.90
76120;DHT22;64852;48.092;-1.640;2024-03-22T03:32:50;13.10;99.90
76120;DHT22;64852;48.092;-1.640;2024-03-22T03:35:16;13.10;99.90
76120;DHT22;64852;48.092;-1.640;2024-03-22T03:37:41;13.00;99.90
76120;DHT22;64852;48.092;-1.640;2024-03-22T03:40:07;13.10;99.90
76120;DHT22;64852;48.092;-1.640;2024-03-22T03:42:33;13.00;99.90
76120;DHT22;64852;48.092;-1.640;2024-03-22T03:44:58;13.00;99.90
76120;DHT22;64852;48.092;-1.640;2024-03-22T03:47:24;13.00;99.90
76120;DHT22;64852;48.092;-1.640;2024-03-22T03:49:49;13.00;99.90
76120;DHT22;64852;48.092;-1.640;2024-03-22T03:52:15;12.90;99.90
76120;DHT22;64852;48.092;-1.640;2024-03-22T03:54:40;13.00;99.90
76120;DHT22;64852;48.092;-1.640;2024-03-22T03:57:06;12.90;99.90
76120;DHT22;64852;48.092;-1.640;2024-03-22T03:59:31;12.90;99.90
76120;DHT22;64852;48.092;-1.640;2024-03-22T04:01:56;12.90;99.90
76120;DHT22;64852;48.092;-1.640;2024-03-22T04:04:22;12.90;99.90
76120;DHT22;64852;48.092;-1.640;2024-03-22T04:06:47;13.00;99.90
76120;DHT22;64852;48.092;-1.640;2024-03-22T04:09:13;12.80;99.90
76120;DHT22;64852;48.092;-1.640;2024-03-22T04:11:38;12.90;99.90
76120;DHT22;64852;48.092;-1.640;2024-03-22T04:14:04;12.90;99.90
76120;DHT22;64852;48.092;-1.640;2024-03-22T04:16:31;12.90;99.90
76120;DHT22;64852;48.092;-1.640;2024-03-22T04:18:57;12.90;99.90
76120;DHT22;64852;48.092;-1.640;2024-03-22T04:21:22;12.90;99.90
76120;DHT22;64852;48.092;-1.640;2024-03-22T04:23:47;12.90;99.90
76120;DHT22;64852;48.092;-1.640;2024-03-22T04:26:13;12.80;99.90
76120;DHT22;64852;48.092;-1.640;2024-03-22T04:28:38;12.90;99.90
76120;DHT22;64852;48.092;-1.640;2024-03-22T04:31:05;12.80;99.90
76120;DHT22;64852;48.092;-1.640;2024-03-22T04:33:31;12.80;99.90
76120;DHT22;64852;48.092;-1.640;2024-03-22T04:35:57;12.80;99.90
76120;DHT22;64852;48.092;-1.640;2024-03-22T04:38:23;12.70;99.90
76120;DHT22;64852;48.092;-1.640;2024-03-22T04:40:49;12.70;99.90
76120;DHT22;64852;48.092;-1.640;2024-03-22T04:43:15;12.50;99.90
76120;DHT22;64852;48.092;-1.640;2024-03-22T04:45:44;12.50;99.90
76120;DHT22;64852;48.092;-1.640;2024-03-22T04:48:12;12.60;99.90
76120;DHT22;64852;48.092;-1.640;2024-03-22T04:50:37;12.50;99.90
76120;DHT22;64852;48.092;-1.640;2024-03-22T04:53:03;12.40;99.90
76120;DHT22;64852;48.092;-1.640;2024-03-22T04:55:28;12.50;99.90
76120;DHT22;64852;48.092;-1.640;2024-03-22T04:57:54;12.40;99.90
76120;DHT22;64852;48.092;-1.640;2024-03-22T05:00:19;12.30;99.90
76120;DHT22;64852;48.092;-1.640;2024-03-22T05:02:45;12.20;99.90
76120;DHT22;64852;48.092;-1.640;2024-03-22T05:05:11;12.20;99.90
76120;DHT22;64852;48.092;-1.640;2024-03-22T05:07:36;12.30;99.90
76120;DHT22;64852;48.092;-1.640;2024-03-22T05:10:02;12.20;99.90
76120;DHT22;64852;48.092;-1.640;2024-03-22T05:12:28;12.20;99.90
76120;DHT22;64852;48.092;-1.640;2024-03-22T05:14:54;12.20;99.90
76120;DHT22;64852;48.092;-1.640;2024-03-22T05:17:20;12.30;99.90
76120;DHT22;64852;48.092;-1.640;2024-03-22T05:19:45;12.20;99.90
76120;DHT22;64852;48.092;-1.640;2024-03-22T05:22:11;12.30;99.90
76120;DHT22;64852;48.092;-1.640;2024-03-22T05:24:36;12.30;99.90
76120;DHT22;64852;48.092;-1.640;2024-03-22T05:27:02;12.40;99.90
76120;DHT22;64852;48.092;-1.640;2024-03-22T05:29:28;12.40;99.90
76120;DHT22;64852;48.092;-1.640;2024-03-22T05:31:53;12.40;99.90
76120;DHT22;64852;48.092;-1.640;2024-03-22T05:34:19;12.40;99.90
76120;DHT22;64852;48.092;-1.640;2024-03-22T05:36:45;12.50;99.90
76120;DHT22;64852;48.092;-1.640;2024-03-22T05:39:10;12.50;99.90
76120;DHT22;64852;48.092;-1.640;2024-03-22T05:41:36;12.50;99.90
76120;DHT22;64852;48.092;-1.640;2024-03-22T05:44:02;12.50;99.90
76120;DHT22;64852;48.092;-1.640;2024-03-22T05:46:28;12.40;99.90
76120;DHT22;64852;48.092;-1.640;2024-03-22T05:48:54;12.60;99.90
76120;DHT22;64852;48.092;-1.640;2024-03-22T05:51:19;12.50;99.90
76120;DHT22;64852;48.092;-1.640;2024-03-22T05:53:45;12.50;99.90
76120;DHT22;64852;48.092;-1.640;2024-03-22T05:56:10;12.90;99.90
76120;DHT22;64852;48.092;-1.640;2024-03-22T05:58:36;12.50;99.90
76120;DHT22;64852;48.092;-1.640;2024-03-22T06:01:02;12.50;99.90
76120;DHT22;64852;48.092;-1.640;2024-03-22T06:03:28;12.50;99.90
76120;DHT22;64852;48.092;-1.640;2024-03-22T06:05:54;12.50;99.90
76120;DHT22;64852;48.092;-1.640;2024-03-22T06:08:21;12.60;99.90
76120;DHT22;64852;48.092;-1.640;2024-03-22T06:10:48;12.60;99.90
76120;DHT22;64852;48.092;-1.640;2024-03-22T06:13:13;12.60;99.90
76120;DHT22;64852;48.092;-1.640;2024-03-22T06:15:40;12.50;99.90
76120;DHT22;64852;48.092;-1.640;2024-03-22T06:18:05;12.60;99.90
76120;DHT22;64852;48.092;-1.640;2024-03-22T06:20:31;12.50;99.90
76120;DHT22;64852;48.092;-1.640;2024-03-22T06:22:56;12.50;99.90
76120;DHT22;64852;48.092;-1.640;2024-03-22T06:25:22;12.40;99.90
76120;DHT22;64852;48.092;-1.640;2024-03-22T06:27:47;12.40;99.90
76120;DHT22;64852;48.092;-1.640;2024-03-22T06:30:13;12.70;99.90
76120;DHT22;64852;48.092;-1.640;2024-03-22T06:32:38;12.40;99.90
76120;DHT22;64852;48.092;-1.640;2024-03-22T06:35:04;12.30;99.90
76120;DHT22;64852;48.092;-1.640;2024-03-22T06:37:31;12.40;99.90
76120;DHT22;64852;48.092;-1.640;2024-03-22T06:39:56;12.40;99.90
76120;DHT22;64852;48.092;-1.640;2024-03-22T06:42:23;12.40;99.90
76120;DHT22;64852;48.092;-1.640;2024-03-22T06:44:49;12.40;99.90
76120;DHT22;64852;48.092;-1.640;2024-03-22T06:47:14;12.30;99.90
76120;DHT22;64852;48.092;-1.640;2024-03-22T06:49:40;12.30;99.90
76120;DHT22;64852;48.092;-1.640;2024-03-22T06:52:05;12.30;99.90
76120;DHT22;64852;48.092;-1.640;2024-03-22T06:54:31;12.50;99.90
76120;DHT22;64852;48.092;-1.640;2024-03-22T06:56:57;12.40;99.90
76120;DHT22;64852;48.092;-1.640;2024-03-22T06:59:22;12.20;99.90
76120;DHT22;64852;48.092;-1.640;2024-03-22T07:01:48;12.20;99.90
76120;DHT22;64852;48.092;-1.640;2024-03-22T07:04:14;12.10;99.90
76120;DHT22;64852;48.092;-1.640;2024-03-22T07:06:39;12.20;99.90
76120;DHT22;64852;48.092;-1.640;2024-03-22T07:09:07;12.20;99.90
76120;DHT22;64852;48.092;-1.640;2024-03-22T07:11:33;12.20;99.90
76120;DHT22;64852;48.092;-1.640;2024-03-22T07:13:58;12.20;99.90
76120;DHT22;64852;48.092;-1.640;2024-03-22T07:16:24;12.30;99.90
76120;DHT22;64852;48.092;-1.640;2024-03-22T07:18:49;12.40;99.90
76120;DHT22;64852;48.092;-1.640;2024-03-22T07:21:15;12.30;99.90
76120;DHT22;64852;48.092;-1.640;2024-03-22T07:23:41;12.70;99.90
76120;DHT22;64852;48.092;-1.640;2024-03-22T07:26:06;12.40;99.90
76120;DHT22;64852;48.092;-1.640;2024-03-22T07:28:33;12.40;99.90
76120;DHT22;64852;48.092;-1.640;2024-03-22T07:30:59;12.50;99.90
76120;DHT22;64852;48.092;-1.640;2024-03-22T07:33:24;12.40;99.90
76120;DHT22;64852;48.092;-1.640;2024-03-22T07:35:50;12.40;99.90
76120;DHT22;64852;48.092;-1.640;2024-03-22T07:38:15;12.40;99.90
76120;DHT22;64852;48.092;-1.640;2024-03-22T07:40:41;12.60;99.90
76120;DHT22;64852;48.092;-1.640;2024-03-22T07:43:06;12.40;99.90
76120;DHT22;64852;48.092;-1.640;2024-03-22T07:45:33;12.30;99.90
76120;DHT22;64852;48.092;-1.640;2024-03-22T07:47:59;12.40;99.90
76120;DHT22;64852;48.092;-1.640;2024-03-22T07:50:24;12.40;99.90
76120;DHT22;64852;48.092;-1.640;2024-03-22T07:52:50;12.30;99.90
76120;DHT22;64852;48.092;-1.640;2024-03-22T07:55:15;12.40;99.90
76120;DHT22;64852;48.092;-1.640;2024-03-22T07:57:41;12.30;99.90
76120;DHT22;64852;48.092;-1.640;2024-03-22T08:00:07;12.40;99.90
76120;DHT22;64852;48.092;-1.640;2024-03-22T08:02:33;12.40;99.90
76120;DHT22;64852;48.092;-1.640;2024-03-22T08:04:58;12.50;99.90
76120;DHT22;64852;48.092;-1.640;2024-03-22T08:07:24;12.70;99.90
76120;DHT22;64852;48.092;-1.640;2024-03-22T08:09:49;12.40;99.90
76120;DHT22;64852;48.092;-1.640;2024-03-22T08:12:15;12.40;99.90
76120;DHT22;64852;48.092;-1.640;2024-03-22T08:14:41;12.40;99.90
76120;DHT22;64852;48.092;-1.640;2024-03-22T08:17:07;12.50;99.90
76120;DHT22;64852;48.092;-1.640;2024-03-22T08:19:34;12.60;99.90
76120;DHT22;64852;48.092;-1.640;2024-03-22T08:22:00;12.60;99.90
76120;DHT22;64852;48.092;-1.640;2024-03-22T08:24:25;12.60;99.90
76120;DHT22;64852;48.092;-1.640;2024-03-22T08:26:51;12.70;99.90
76120;DHT22;64852;48.092;-1.640;2024-03-22T08:29:16;12.70;99.90
76120;DHT22;64852;48.092;-1.640;2024-03-22T08:31:42;12.60;99.90
76120;DHT22;64852;48.092;-1.640;2024-03-22T08:34:08;12.70;99.90
76120;DHT22;64852;48.092;-1.640;2024-03-22T08:36:34;12.60;99.90
76120;DHT22;64852;48.092;-1.640;2024-03-22T08:38:59;12.70;99.90
76120;DHT22;64852;48.092;-1.640;2024-03-22T08:41:25;12.80;99.90
76120;DHT22;64852;48.092;-1.640;2024-03-22T08:43:50;12.70;99.90
76120;DHT22;64852;48.092;-1.640;2024-03-22T08:46:16;12.80;99.90
76120;DHT22;64852;48.092;-1.640;2024-03-22T08:48:42;12.60;99.90
76120;DHT22;64852;48.092;-1.640;2024-03-22T08:51:07;12.80;99.90
76120;DHT22;64852;48.092;-1.640;2024-03-22T08:53:33;12.90;99.90
76120;DHT22;64852;48.092;-1.640;2024-03-22T08:55:58;12.90;99.90
76120;DHT22;64852;48.092;-1.640;2024-03-22T08:58:24;12.90;99.90
76120;DHT22;64852;48.092;-1.640;2024-03-22T09:00:49;13.00;99.90
76120;DHT22;64852;48.092;-1.640;2024-03-22T09:03:15;13.10;99.90
76120;DHT22;64852;48.092;-1.640;2024-03-22T09:05:40;13.00;99.90
76120;DHT22;64852;48.092;-1.640;2024-03-22T09:08:06;13.30;99.90
76120;DHT22;64852;48.092;-1.640;2024-03-22T09:10:32;13.20;99.90
76120;DHT22;64852;48.092;-1.640;2024-03-22T09:12:57;13.20;99.90
76120;DHT22;64852;48.092;-1.640;2024-03-22T09:15:23;13.40;99.90
76120;DHT22;64852;48.092;-1.640;2024-03-22T09:17:51;13.40;99.90
76120;DHT22;64852;48.092;-1.640;2024-03-22T09:20:16;13.40;99.90
76120;DHT22;64852;48.092;-1.640;2024-03-22T09:22:42;13.60;99.90
76120;DHT22;64852;48.092;-1.640;2024-03-22T09:25:07;13.70;99.90
76120;DHT22;64852;48.092;-1.640;2024-03-22T09:27:33;13.80;99.90
76120;DHT22;64852;48.092;-1.640;2024-03-22T09:29:58;13.80;99.90
76120;DHT22;64852;48.092;-1.640;2024-03-22T09:32:24;13.80;99.90
76120;DHT22;64852;48.092;-1.640;2024-03-22T09:34:51;13.90;99.90
76120;DHT22;64852;48.092;-1.640;2024-03-22T09:37:17;14.00;99.90
76120;DHT22;64852;48.092;-1.640;2024-03-22T09:39:43;14.00;99.90
76120;DHT22;64852;48.092;-1.640;2024-03-22T09:42:10;14.10;99.90
76120;DHT22;64852;48.092;-1.640;2024-03-22T09:44:38;14.20;99.90
76120;DHT22;64852;48.092;-1.640;2024-03-22T09:47:05;14.20;99.90
76120;DHT22;64852;48.092;-1.640;2024-03-22T09:49:31;14.10;99.90
76120;DHT22;64852;48.092;-1.640;2024-03-22T09:51:57;14.20;99.90
76120;DHT22;64852;48.092;-1.640;2024-03-22T09:54:23;14.10;99.90
76120;DHT22;64852;48.092;-1.640;2024-03-22T09:56:50;14.00;99.90
76120;DHT22;64852;48.092;-1.640;2024-03-22T09:59:15;14.10;99.90
76120;DHT22;64852;48.092;-1.640;2024-03-22T10:01:41;14.10;99.90
76120;DHT22;64852;48.092;-1.640;2024-03-22T10:04:08;14.00;99.90
76120;DHT22;64852;48.092;-1.640;2024-03-22T10:06:35;14.10;99.90
76120;DHT22;64852;48.092;-1.640;2024-03-22T10:09:00;14.00;99.90
76120;DHT22;64852;48.092;-1.640;2024-03-22T10:11:26;14.10;99.90
76120;DHT22;64852;48.092;-1.640;2024-03-22T10:13:52;13.90;99.90
76120;DHT22;64852;48.092;-1.640;2024-03-22T10:16:17;14.00;99.90
76120;DHT22;64852;48.092;-1.640;2024-03-22T10:18:43;14.00;99.90
76120;DHT22;64852;48.092;-1.640;2024-03-22T10:21:09;14.20;99.90
76120;DHT22;64852;48.092;-1.640;2024-03-22T10:23:34;14.20;99.90
76120;DHT22;64852;48.092;-1.640;2024-03-22T10:26:00;14.30;99.90
76120;DHT22;64852;48.092;-1.640;2024-03-22T10:28:26;14.40;99.90
76120;DHT22;64852;48.092;-1.640;2024-03-22T10:30:52;14.50;99.90
76120;DHT22;64852;48.092;-1.640;2024-03-22T10:33:22;14.50;99.90
76120;DHT22;64852;48.092;-1.640;2024-03-22T10:35:51;14.80;99.90
76120;DHT22;64852;48.092;-1.640;2024-03-22T10:38:18;14.70;99.90
76120;DHT22;64852;48.092;-1.640;2024-03-22T10:40:44;14.80;99.90
76120;DHT22;64852;48.092;-1.640;2024-03-22T10:43:12;14.80;99.90
76120;DHT22;64852;48.092;-1.640;2024-03-22T10:45:38;14.70;99.90
76120;DHT22;64852;48.092;-1.640;2024-03-22T10:48:04;14.80;99.90
76120;DHT22;64852;48.092;-1.640;2024-03-22T10:50:33;14.70;99.90
76120;DHT22;64852;48.092;-1.640;2024-03-22T10:53:00;14.80;99.90
76120;DHT22;64852;48.092;-1.640;2024-03-22T10:55:27;14.70;99.90
76120;DHT22;64852;48.092;-1.640;2024-03-22T10:57:58;14.90;99.90
76120;DHT22;64852;48.092;-1.640;2024-03-22T11:00:28;15.00;99.90
76120;DHT22;64852;48.092;-1.640;2024-03-22T11:02:54;15.10;99.90
76120;DHT22;64852;48.092;-1.640;2024-03-22T11:05:19;15.20;99.90
76120;DHT22;64852;48.092;-1.640;2024-03-22T11:07:45;15.40;99.90
76120;DHT22;64852;48.092;-1.640;2024-03-22T11:10:11;15.40;99.90
76120;DHT22;64852;48.092;-1.640;2024-03-22T11:12:37;15.40;99.90
76120;DHT22;64852;48.092;-1.640;2024-03-22T11:15:03;15.60;99.90
76120;DHT22;64852;48.092;-1.640;2024-03-22T11:17:28;15.60;99.90
76120;DHT22;64852;48.092;-1.640;2024-03-22T11:19:54;15.70;99.90
76120;DHT22;64852;48.092;-1.640;2024-03-22T11:22:20;15.80;99.90
76120;DHT22;64852;48.092;-1.640;2024-03-22T11:24:45;15.80;99.90
76120;DHT22;64852;48.092;-1.640;2024-03-22T11:27:11;15.90;99.90
76120;DHT22;64852;48.092;-1.640;2024-03-22T11:29:37;16.00;99.90
76120;DHT22;64852;48.092;-1.640;2024-03-22T11:32:06;16.10;99.90
76120;DHT22;64852;48.092;-1.640;2024-03-22T11:34:34;16.20;99.90
76120;DHT22;64852;48.092;-1.640;2024-03-22T11:36:59;16.30;99.90
76120;DHT22;64852;48.092;-1.640;2024-03-22T11:39:25;16.20;99.90
76120;DHT22;64852;48.092;-1.640;2024-03-22T11:41:50;16.10;99.90
76120;DHT22;64852;48.092;-1.640;2024-03-22T11:44:16;16.20;99.90
76120;DHT22;64852;48.092;-1.640;2024-03-22T11:46:44;16.20;99.90
76120;DHT22;64852;48.092;-1.640;2024-03-22T11:49:09;16.30;99.90
76120;DHT22;64852;48.092;-1.640;2024-03-22T11:51:35;16.70;99.90
76120;DHT22;64852;48.092;-1.640;2024-03-22T11:54:02;16.80;99.90
76120;DHT22;64852;48.092;-1.640;2024-03-22T11:56:28;17.20;99.90
76120;DHT22;64852;48.092;-1.640;2024-03-22T11:58:57;17.00;99.90
76120;DHT22;64852;48.092;-1.640;2024-03-22T12:01:23;17.00;99.90
76120;DHT22;64852;48.092;-1.640;2024-03-22T12:03:49;17.10;99.90
76120;DHT22;64852;48.092;-1.640;2024-03-22T12:06:17;17.10;99.90
76120;DHT22;64852;48.092;-1.640;2024-03-22T12:08:42;17.00;99.90
76120;DHT22;64852;48.092;-1.640;2024-03-22T12:11:08;17.00;99.90
76120;DHT22;64852;48.092;-1.640;2024-03-22T12:13:34;17.20;99.90
76120;DHT22;64852;48.092;-1.640;2024-03-22T12:16:00;17.40;99.90
76120;DHT22;64852;48.092;-1.640;2024-03-22T12:18:26;17.70;99.90
76120;DHT22;64852;48.092;-1.640;2024-03-22T12:20:52;17.90;99.90
76120;DHT22;64852;48.092;-1.640;2024-03-22T12:23:17;17.80;99.90
76120;DHT22;64852;48.092;-1.640;2024-03-22T12:25:43;17.90;99.90
76120;DHT22;64852;48.092;-1.640;2024-03-22T12:28:08;18.20;99.90
76120;DHT22;64852;48.092;-1.640;2024-03-22T12:30:34;19.00;99.90
76120;DHT22;64852;48.092;-1.640;2024-03-22T12:33:00;19.40;99.90
76120;DHT22;64852;48.092;-1.640;2024-03-22T12:35:26;20.00;99.90
76120;DHT22;64852;48.092;-1.640;2024-03-22T12:37:52;20.10;99.90
76120;DHT22;64852;48.092;-1.640;2024-03-22T12:40:18;20.50;99.90
76120;DHT22;64852;48.092;-1.640;2024-03-22T12:42:44;21.00;99.90
76120;DHT22;64852;48.092;-1.640;2024-03-22T12:45:09;21.60;99.90
76120;DHT22;64852;48.092;-1.640;2024-03-22T12:47:35;22.20;99.90
76120;DHT22;64852;48.092;-1.640;2024-03-22T12:50:00;22.10;86.10
76120;DHT22;64852;48.092;-1.640;2024-03-22T12:52:26;22.00;99.90
76120;DHT22;64852;48.092;-1.640;2024-03-22T12:54:51;22.20;96.50
76120;DHT22;64852;48.092;-1.640;2024-03-22T12:57:17;22.80;99.90
76120;DHT22;64852;48.092;-1.640;2024-03-22T12:59:43;23.30;99.90
76120;DHT22;64852;48.092;-1.640;2024-03-22T13:02:08;23.80;99.90
76120;DHT22;64852;48.092;-1.640;2024-03-22T13:04:34;24.40;99.90
76120;DHT22;64852;48.092;-1.640;2024-03-22T13:06:59;25.00;99.90
76120;DHT22;64852;48.092;-1.640;2024-03-22T13:09:25;25.30;91.00
76120;DHT22;64852;48.092;-1.640;2024-03-22T13:11:52;25.20;67.60
76120;DHT22;64852;48.092;-1.640;2024-03-22T13:14:18;25.40;92.70
76120;DHT22;64852;48.092;-1.640;2024-03-22T13:16:45;25.90;88.20
76120;DHT22;64852;48.092;-1.640;2024-03-22T13:19:11;26.00;75.60
76120;DHT22;64852;48.092;-1.640;2024-03-22T13:21:39;26.30;81.30
76120;DHT22;64852;48.092;-1.640;2024-03-22T13:24:05;26.60;78.30
76120;DHT22;64852;48.092;-1.640;2024-03-22T13:26:30;26.80;65.40
76120;DHT22;64852;48.092;-1.640;2024-03-22T13:28:56;26.90;74.90
76120;DHT22;64852;48.092;-1.640;2024-03-22T13:31:22;27.40;66.90
76120;DHT22;64852;48.092;-1.640;2024-03-22T13:33:48;27.40;59.00
76120;DHT22;64852;48.092;-1.640;2024-03-22T13:36:13;27.50;58.10
76120;DHT22;64852;48.092;-1.640;2024-03-22T13:38:39;27.30;55.40
76120;DHT22;64852;48.092;-1.640;2024-03-22T13:41:04;27.30;58.00
76120;DHT22;64852;48.092;-1.640;2024-03-22T13:43:31;27.60;59.40
76120;DHT22;64852;48.092;-1.640;2024-03-22T13:45:56;28.00;57.00
76120;DHT22;64852;48.092;-1.640;2024-03-22T13:48:23;28.30;54.90
76120;DHT22;64852;48.092;-1.640;2024-03-22T13:50:52;28.40;54.20
76120;DHT22;64852;48.092;-1.640;2024-03-22T13:53:18;28.70;57.60
76120;DHT22;64852;48.092;-1.640;2024-03-22T13:55:43;29.20;56.70
76120;DHT22;64852;48.092;-1.640;2024-03-22T13:58:09;29.50;53.10
76120;DHT22;64852;48.092;-1.640;2024-03-22T14:00:34;29.70;55.20
76120;DHT22;64852;48.092;-1.640;2024-03-22T14:03:01;30.10;55.70
76120;DHT22;64852;48.092;-1.640;2024-03-22T14:05:26;30.10;46.00
76120;DHT22;64852;48.092;-1.640;2024-03-22T14:07:52;29.60;43.80
76120;DHT22;64852;48.092;-1.640;2024-03-22T14:10:17;29.50;48.00
76120;DHT22;64852;48.092;-1.640;2024-03-22T14:12:45;29.10;43.80
76120;DHT22;64852;48.092;-1.640;2024-03-22T14:15:10;29.00;44.80
76120;DHT22;64852;48.092;-1.640;2024-03-22T14:17:36;29.30;46.30
76120;DHT22;64852;48.092;-1.640;2024-03-22T14:20:02;29.60;47.10
76120;DHT22;64852;48.092;-1.640;2024-03-22T14:22:31;30.10;44.80
76120;DHT22;64852;48.092;-1.640;2024-03-22T14:24:56;30.50;47.50
76120;DHT22;64852;48.092;-1.640;2024-03-22T14:27:22;30.60;42.50
76120;DHT22;64852;48.092;-1.640;2024-03-22T14:29:47;30.70;45.10
76120;DHT22;64852;48.092;-1.640;2024-03-22T14:32:13;30.60;40.60
76120;DHT22;64852;48.092;-1.640;2024-03-22T14:34:38;30.70;43.30
76120;DHT22;64852;48.092;-1.640;2024-03-22T14:37:04;31.20;45.40
76120;DHT22;64852;48.092;-1.640;2024-03-22T14:39:29;31.80;45.80
76120;DHT22;64852;48.092;-1.640;2024-03-22T14:41:54;32.10;41.00
76120;DHT22;64852;48.092;-1.640;2024-03-22T14:44:20;32.20;43.40
76120;DHT22;64852;48.092;-1.640;2024-03-22T14:46:45;32.50;42.10
76120;DHT22;64852;48.092;-1.640;2024-03-22T14:49:11;32.70;43.80
76120;DHT22;64852;48.092;-1.640;2024-03-22T14:51:37;33.00;43.90
76120;DHT22;64852;48.092;-1.640;2024-03-22T14:54:02;33.00;40.70
76120;DHT22;64852;48.092;-1.640;2024-03-22T14:56:29;32.50;36.90
76120;DHT22;64852;48.092;-1.640;2024-03-22T14:58:55;32.20;38.20
76120;DHT22;64852;48.092;-1.640;2024-03-22T15:01:22;31.70;38.90
76120;DHT22;64852;48.092;-1.640;2024-03-22T15:03:48;31.20;39.20
76120;DHT22;64852;48.092;-1.640;2024-03-22T15:06:15;30.60;39.30